createdAt,value
2022-11-04T00:02:08.097Z,99608.43
2022-11-04T00:04:34.948Z,99608.77
2022-11-04T00:07:01.684Z,99610.47
2022-11-04T00:09:30.189Z,99612.04
2022-11-04T00:12:15.651Z,99609.37
2022-11-04T00:14:42.568Z,99613.63
2022-11-04T00:17:24.539Z,99607.93
2022-11-04T00:20:13.561Z,99608.73
2022-11-04T00:22:59.851Z,99609.39
2022-11-04T00:25:45.173Z,99609.64
2022-11-04T00:28:34.078Z,99610.60
2022-11-04T00:31:20.100Z,99607.96
2022-11-04T00:33:48.717Z,99600.48
2022-11-04T00:36:15.770Z,99601.71
2022-11-04T00:38:42.556Z,99601.89
2022-11-04T00:41:26.521Z,99600.16
2022-11-04T00:43:54.737Z,99595.84
2022-11-04T00:46:21.502Z,99598.84
2022-11-04T00:48:48.273Z,99598.84
2022-11-04T00:51:15.301Z,99600.00
2022-11-04T00:53:42.070Z,99596.57
2022-11-04T00:56:08.702Z,99595.41
2022-11-04T00:58:35.482Z,99593.48
2022-11-04T01:01:07.014Z,99595.78
2022-11-04T01:03:33.777Z,99594.46
2022-11-04T01:06:00.390Z,99589.86
2022-11-04T01:08:27.083Z,99584.82
2022-11-04T01:10:53.820Z,99588.24
2022-11-04T01:13:20.689Z,99585.33
2022-11-04T01:15:47.404Z,99585.11
2022-11-04T01:18:14.010Z,99583.30
2022-11-04T01:20:40.748Z,99584.25
2022-11-04T01:23:07.392Z,99581.98
2022-11-04T01:25:34.072Z,99582.48
2022-11-04T01:28:01.010Z,99581.45
2022-11-04T01:30:27.729Z,99577.73
2022-11-04T01:32:54.455Z,99580.73
2022-11-04T01:35:21.425Z,99580.27
2022-11-04T01:37:48.124Z,99579.27
2022-11-04T01:40:14.848Z,99583.14
2022-11-04T01:42:41.506Z,99584.05
2022-11-04T01:45:14.602Z,99583.47
2022-11-04T01:47:47.715Z,99586.02
2022-11-04T01:50:21.289Z,99587.61
2022-11-04T01:53:08.205Z,99590.73
2022-11-04T01:55:36.385Z,99590.70
2022-11-04T01:58:05.758Z,99588.10
2022-11-04T02:00:33.001Z,99589.34
2022-11-04T02:03:09.450Z,99584.61
2022-11-04T02:05:36.405Z,99583.77
2022-11-04T02:08:03.966Z,99582.05
2022-11-04T02:10:30.894Z,99581.29
2022-11-04T02:12:58.710Z,99574.17
2022-11-04T02:15:40.882Z,99577.52
2022-11-04T02:18:20.987Z,99583.37
2022-11-04T02:21:11.011Z,99582.74
2022-11-04T02:24:01.740Z,99582.67
2022-11-04T02:26:46.979Z,99581.61
2022-11-04T02:29:38.326Z,99580.51
2022-11-04T02:32:26.427Z,99576.58
2022-11-04T02:34:59.671Z,99575.92
2022-11-04T02:37:37.634Z,99570.20
2022-11-04T02:40:16.409Z,99568.69
2022-11-04T02:42:52.723Z,99567.39
2022-11-04T02:45:22.482Z,99568.05
2022-11-04T02:47:52.035Z,99564.38
2022-11-04T02:50:25.867Z,99560.95
2022-11-04T02:53:06.567Z,99564.32
2022-11-04T02:55:36.659Z,99563.72
2022-11-04T02:58:05.496Z,99566.79
2022-11-04T03:00:32.205Z,99563.93
2022-11-04T03:03:04.355Z,99564.79
2022-11-04T03:05:33.946Z,99564.48
2022-11-04T03:08:09.439Z,99570.98
2022-11-04T03:10:38.587Z,99569.31
2022-11-04T03:13:16.343Z,99572.06
2022-11-04T03:15:54.225Z,99571.70
2022-11-04T03:18:33.494Z,99569.98
2022-11-04T03:21:02.350Z,99564.41
2022-11-04T03:23:29.090Z,99571.50
2022-11-04T03:25:58.273Z,99568.63
2022-11-04T03:28:31.849Z,99566.83
2022-11-04T03:30:59.580Z,99571.73
2022-11-04T03:33:39.489Z,99574.84
2022-11-04T03:36:08.749Z,99575.98
2022-11-04T03:38:36.301Z,99575.10
2022-11-04T03:41:03.615Z,99568.92
2022-11-04T03:43:30.338Z,99570.15
2022-11-04T03:45:57.022Z,99566.82
2022-11-04T03:48:23.758Z,99568.96
2022-11-04T03:50:51.228Z,99561.63
2022-11-04T03:53:22.655Z,99563.81
2022-11-04T03:56:20.551Z,99557.02
2022-11-04T03:58:50.485Z,99558.63
2022-11-04T04:01:26.513Z,99563.08
2022-11-04T04:03:58.059Z,99567.60
2022-11-04T04:06:30.183Z,99566.98
2022-11-04T04:09:03.030Z,99564.40
2022-11-04T04:11:41.266Z,99561.22
2022-11-04T04:14:40.006Z,99565.49
2022-11-04T04:17:20.651Z,99567.95
2022-11-04T04:19:51.216Z,99569.73
2022-11-04T04:22:23.249Z,99568.14
2022-11-04T04:25:10.973Z,99571.69
2022-11-04T04:27:37.692Z,99578.04
2022-11-04T04:30:14.485Z,99574.38
2022-11-04T04:33:03.225Z,99580.86
2022-11-04T04:35:43.097Z,99577.75
2022-11-04T04:38:44.189Z,99579.29
2022-11-04T04:41:39.299Z,99583.44
2022-11-04T04:44:49.057Z,99579.42
2022-11-04T04:47:20.042Z,99583.73
2022-11-04T04:49:53.849Z,99581.95
2022-11-04T04:52:20.844Z,99580.55
2022-11-04T04:54:47.597Z,99583.34
2022-11-04T04:57:14.255Z,99585.52
2022-11-04T04:59:40.997Z,99588.46
2022-11-04T05:02:07.939Z,99586.62
2022-11-04T05:04:34.735Z,99582.71
2022-11-04T05:07:01.605Z,99582.38
2022-11-04T05:09:28.326Z,99585.95
2022-11-04T05:11:55.065Z,99590.64
2022-11-04T05:14:21.719Z,99588.99
2022-11-04T05:16:48.428Z,99587.79
2022-11-04T05:19:15.190Z,99585.77
2022-11-04T05:21:41.829Z,99592.17
2022-11-04T05:24:08.611Z,99594.73
2022-11-04T05:26:35.234Z,99597.06
2022-11-04T05:29:02.045Z,99605.33
2022-11-04T05:31:30.329Z,99608.46
2022-11-04T05:33:58.952Z,99606.83
2022-11-04T05:36:25.800Z,99609.83
2022-11-04T05:38:53.134Z,99613.70
2022-11-04T05:41:26.080Z,99616.86
2022-11-04T05:43:57.232Z,99613.91
2022-11-04T05:46:24.376Z,99623.59
2022-11-04T05:48:51.123Z,99622.43
2022-11-04T05:51:18.618Z,99623.70
2022-11-04T05:53:45.330Z,99623.29
2022-11-04T05:56:12.072Z,99625.05
2022-11-04T05:58:38.704Z,99627.56
2022-11-04T06:01:24.105Z,99630.23
2022-11-04T06:03:51.817Z,99633.07
2022-11-04T06:06:18.625Z,99627.90
2022-11-04T06:08:45.532Z,99632.10
2022-11-04T06:11:12.328Z,99636.52
2022-11-04T06:13:39.042Z,99638.05
2022-11-04T06:17:03.896Z,99632.92
2022-11-04T06:19:30.765Z,99633.38
2022-11-04T06:21:57.429Z,99633.01
2022-11-04T06:24:24.213Z,99633.73
2022-11-04T06:26:50.926Z,99632.14
2022-11-04T06:29:17.667Z,99629.17
2022-11-04T06:31:44.330Z,99633.09
2022-11-04T06:34:11.560Z,99632.89
2022-11-04T06:36:38.428Z,99632.47
2022-11-04T06:39:06.446Z,99632.94
2022-11-04T06:41:33.298Z,99634.42
2022-11-04T06:44:00.026Z,99635.09
2022-11-04T06:46:39.535Z,99633.46
2022-11-04T06:49:07.216Z,99635.99
2022-11-04T06:51:34.176Z,99633.78
2022-11-04T06:54:00.984Z,99632.66
2022-11-04T06:56:27.652Z,99631.87
2022-11-04T06:58:55.013Z,99628.30
2022-11-04T07:01:23.311Z,99628.80
2022-11-04T07:03:54.521Z,99626.29
2022-11-04T07:06:21.392Z,99630.76
2022-11-04T07:08:48.931Z,99633.14
2022-11-04T07:11:17.134Z,99635.13
2022-11-04T07:13:43.868Z,99637.17
2022-11-04T07:16:10.529Z,99636.05
2022-11-04T07:18:37.316Z,99635.73
2022-11-04T07:21:09.735Z,99632.52
2022-11-04T07:23:36.845Z,99632.25
2022-11-04T07:26:04.470Z,99620.66
2022-11-04T07:28:31.220Z,99627.27
2022-11-04T07:31:00.989Z,99628.93
2022-11-04T07:33:27.894Z,99629.41
2022-11-04T07:35:57.984Z,99626.88
2022-11-04T07:38:25.254Z,99623.44
2022-11-04T07:40:51.904Z,99618.29
2022-11-04T07:43:18.646Z,99620.88
2022-11-04T07:45:45.879Z,99620.65
2022-11-04T07:48:12.643Z,99618.53
2022-11-04T07:50:40.612Z,99618.77
2022-11-04T07:53:08.062Z,99613.24
2022-11-04T07:55:42.866Z,99614.44
2022-11-04T07:58:10.725Z,99612.58
2022-11-04T08:00:37.485Z,99609.53
2022-11-04T08:03:04.135Z,99609.85
2022-11-04T08:05:30.862Z,99612.98
2022-11-04T08:07:57.953Z,99614.58
2022-11-04T08:10:24.862Z,99615.43
2022-11-04T08:12:52.393Z,99617.07
2022-11-04T08:15:19.118Z,99614.58
2022-11-04T08:17:45.733Z,99622.00
2022-11-04T08:20:12.719Z,99617.85
2022-11-04T08:22:39.441Z,99616.24
2022-11-04T08:25:06.317Z,99616.77
2022-11-04T08:27:33.172Z,99615.83
2022-11-04T08:29:59.789Z,99624.34
2022-11-04T08:32:26.752Z,99625.64
2022-11-04T08:34:53.577Z,99623.14
2022-11-04T08:37:20.320Z,99625.69
2022-11-04T08:39:47.038Z,99625.19
2022-11-04T08:42:13.753Z,99621.44
2022-11-04T08:44:40.655Z,99616.69
2022-11-04T08:47:07.357Z,99615.41
2022-11-04T08:49:37.581Z,99617.23
2022-11-04T08:52:04.451Z,99620.27
2022-11-04T08:54:31.179Z,99618.84
2022-11-04T08:56:58.203Z,99617.83
2022-11-04T08:59:25.253Z,99616.27
2022-11-04T09:01:52.160Z,99621.52
2022-11-04T09:04:19.926Z,99618.11
2022-11-04T09:06:46.777Z,99620.34
2022-11-04T09:09:15.030Z,99619.66
2022-11-04T09:11:42.421Z,99618.50
2022-11-04T09:14:09.364Z,99617.63
2022-11-04T09:16:36.475Z,99615.50
2022-11-04T09:19:03.465Z,99616.44
2022-11-04T09:21:30.177Z,99616.40
2022-11-04T09:23:57.016Z,99622.42
2022-11-04T09:26:24.119Z,99617.15
2022-11-04T09:28:57.876Z,99614.61
2022-11-04T09:31:26.059Z,99612.58
2022-11-04T09:33:54.179Z,99612.14
2022-11-04T09:36:20.904Z,99618.23
2022-11-04T09:38:47.565Z,99616.90
2022-11-04T09:41:32.635Z,99613.49
2022-11-04T09:44:07.594Z,99613.48
2022-11-04T09:46:34.287Z,99607.92
2022-11-04T09:49:01.513Z,99606.62
2022-11-04T09:51:52.557Z,99605.51
2022-11-04T09:54:25.905Z,99605.48
2022-11-04T09:56:53.234Z,99608.30
2022-11-04T09:59:29.045Z,99609.10
2022-11-04T10:02:22.623Z,99609.81
2022-11-04T10:05:46.017Z,99614.66
2022-11-04T10:08:39.143Z,99611.27
2022-11-04T10:11:21.513Z,99610.10
2022-11-04T10:14:12.543Z,99610.54
2022-11-04T10:17:09.374Z,99609.52
2022-11-04T10:19:52.108Z,99604.23
2022-11-04T10:22:38.643Z,99602.92
2022-11-04T10:25:15.648Z,99601.64
2022-11-04T10:27:44.008Z,99604.40
2022-11-04T10:30:23.780Z,99601.05
2022-11-04T10:33:21.871Z,99599.82
2022-11-04T10:35:50.844Z,99601.43
2022-11-04T10:38:18.938Z,99598.63
2022-11-04T10:40:51.086Z,99592.96
2022-11-04T10:43:44.317Z,99586.94
2022-11-04T10:46:23.403Z,99584.13
2022-11-04T10:49:09.875Z,99582.29
2022-11-04T10:51:36.617Z,99579.94
2022-11-04T10:54:05.258Z,99581.91
2022-11-04T10:56:34.206Z,99581.69
2022-11-04T10:59:04.780Z,99580.82
2022-11-04T11:01:33.551Z,99577.64
2022-11-04T11:04:01.024Z,99574.08
2022-11-04T11:06:28.686Z,99571.41
2022-11-04T11:09:00.200Z,99569.11
2022-11-04T11:12:48.708Z,99569.29
2022-11-04T11:15:01.538Z,99564.00
2022-11-04T11:17:34.459Z,99561.95
2022-11-04T11:20:22.386Z,99559.71
2022-11-04T11:22:50.413Z,99561.92
2022-11-04T11:25:29.833Z,99558.41
2022-11-04T11:28:02.576Z,99555.40
2022-11-04T11:30:32.080Z,99557.31
2022-11-04T11:33:07.257Z,99558.73
2022-11-04T11:35:42.133Z,99556.30
2022-11-04T11:38:21.386Z,99553.40
2022-11-04T11:41:18.292Z,99561.14
2022-11-04T11:43:35.629Z,99552.88
2022-11-04T11:46:03.335Z,99558.91
2022-11-04T11:48:43.727Z,99558.09
2022-11-04T11:51:14.136Z,99560.30
2022-11-04T11:53:45.753Z,99558.02
2022-11-04T11:56:23.894Z,99556.23
2022-11-04T12:02:07.323Z,99554.36
2022-11-04T12:11:00.839Z,99542.58
2022-11-04T12:13:30.695Z,99545.75
2022-11-04T12:16:13.433Z,99549.49
2022-11-04T12:18:52.552Z,99543.39
2022-11-04T12:21:33.300Z,99547.30
2022-11-04T12:24:02.315Z,99541.23
2022-11-04T12:26:48.129Z,99542.08
2022-11-04T12:29:27.800Z,99540.02
2022-11-04T12:32:20.927Z,99541.76
2022-11-04T12:35:11.747Z,99541.52
2022-11-04T12:38:11.468Z,99541.05
2022-11-04T12:41:18.788Z,99542.05
2022-11-04T12:43:58.937Z,99539.51
2022-11-04T12:46:32.520Z,99541.25
2022-11-04T12:49:07.390Z,99544.34
2022-11-04T12:51:47.288Z,99545.05
2022-11-04T12:54:52.740Z,99545.76
2022-11-04T12:57:46.908Z,99548.00
2022-11-04T13:00:14.440Z,99555.21
2022-11-04T13:02:54.758Z,99558.35
2022-11-04T13:05:21.776Z,99560.80
2022-11-04T13:08:14.664Z,99559.02
2022-11-04T13:10:53.420Z,99555.94
2022-11-04T13:13:31.276Z,99557.89
2022-11-04T13:15:58.743Z,99558.21
2022-11-04T13:18:26.665Z,99559.88
2022-11-04T13:20:59.318Z,99555.03
2022-11-04T13:23:36.154Z,99557.05
2022-11-04T13:26:04.039Z,99556.67
2022-11-04T13:28:30.732Z,99555.91
2022-11-04T13:31:03.340Z,99554.91
2022-11-04T13:33:51.788Z,99555.19
2022-11-04T13:36:33.719Z,99554.55
2022-11-04T13:39:06.082Z,99553.90
2022-11-04T13:41:51.700Z,99549.14
2022-11-04T13:44:26.791Z,99548.40
2022-11-04T13:46:55.716Z,99550.66
2022-11-04T13:49:30.544Z,99552.58
2022-11-04T13:52:08.248Z,99556.65
2022-11-04T13:54:57.412Z,99559.09
2022-11-04T13:57:25.965Z,99558.15
2022-11-04T14:00:10.766Z,99554.92
2022-11-04T14:02:47.758Z,99555.60
2022-11-04T14:05:29.919Z,99559.84
2022-11-04T14:08:00.896Z,99560.30
2022-11-04T14:10:44.206Z,99561.09
2022-11-04T14:13:34.135Z,99563.23
2022-11-04T14:16:07.407Z,99562.59
2022-11-04T14:18:35.694Z,99562.81
2022-11-04T14:21:15.649Z,99565.84
2022-11-04T14:23:44.094Z,99566.91
2022-11-04T14:26:12.144Z,99565.88
2022-11-04T14:28:38.965Z,99571.37
2022-11-04T14:31:06.403Z,99571.01
2022-11-04T14:33:53.689Z,99566.92
2022-11-04T14:36:20.698Z,99563.89
2022-11-04T14:38:57.982Z,99564.78
2022-11-04T14:41:30.814Z,99560.10
2022-11-04T14:44:00.912Z,99564.45
2022-11-04T14:46:34.249Z,99567.61
2022-11-04T14:49:03.626Z,99561.81
2022-11-04T14:51:31.893Z,99565.69
2022-11-04T14:54:18.951Z,99570.65
2022-11-04T14:56:47.013Z,99571.70
2022-11-04T14:59:21.551Z,99574.04
2022-11-04T15:01:49.348Z,99573.19
2022-11-04T15:04:30.888Z,99571.73
2022-11-04T15:07:01.272Z,99573.11
2022-11-04T15:09:41.422Z,99565.58
2022-11-04T15:12:31.098Z,99578.30
2022-11-04T15:14:58.007Z,99575.61
2022-11-04T15:17:26.832Z,99576.88
2022-11-04T15:19:54.476Z,99578.72
2022-11-04T15:22:22.220Z,99573.80
2022-11-04T15:24:50.978Z,99572.92
2022-11-04T15:27:20.856Z,99571.30
2022-11-04T15:29:58.994Z,99569.11
2022-11-04T15:32:26.005Z,99574.83
2022-11-04T15:34:53.429Z,99572.52
2022-11-04T15:37:20.345Z,99575.25
2022-11-04T15:39:48.328Z,99572.06
2022-11-04T15:42:40.326Z,99576.70
2022-11-04T15:45:27.205Z,99572.79
2022-11-04T15:48:25.845Z,99575.68
2022-11-04T15:51:19.674Z,99575.23
2022-11-04T15:53:48.045Z,99573.27
2022-11-04T15:56:16.535Z,99571.70
2022-11-04T15:58:44.190Z,99574.08
2022-11-04T16:01:14.904Z,99574.09
2022-11-04T16:03:51.106Z,99573.68
2022-11-04T16:06:17.889Z,99574.11
2022-11-04T16:08:48.539Z,99574.38
2022-11-04T16:11:19.580Z,99579.55
2022-11-04T16:13:46.775Z,99581.56
2022-11-04T16:16:19.523Z,99578.48
2022-11-04T16:18:51.838Z,99577.53
2022-11-04T16:21:37.182Z,99574.55
2022-11-04T16:24:09.494Z,99577.02
2022-11-04T16:26:41.237Z,99578.20
2022-11-04T16:29:09.879Z,99581.96
2022-11-04T16:31:36.962Z,99584.95
2022-11-04T16:34:03.864Z,99583.44
2022-11-04T16:36:35.331Z,99585.11
2022-11-04T16:39:04.552Z,99583.50
2022-11-04T16:41:33.630Z,99580.34
2022-11-04T16:44:00.356Z,99580.23
2022-11-04T16:46:27.043Z,99578.86
2022-11-04T16:48:54.170Z,99582.18
2022-11-04T16:51:21.926Z,99584.78
2022-11-04T16:53:50.231Z,99569.58
2022-11-04T16:56:17.805Z,99579.61
2022-11-04T16:58:44.866Z,99577.46
2022-11-04T17:01:13.231Z,99577.50
2022-11-04T17:03:40.883Z,99580.23
2022-11-04T17:06:07.941Z,99579.10
2022-11-04T17:08:34.668Z,99584.61
2022-11-04T17:11:01.420Z,99580.27
2022-11-04T17:13:33.457Z,99579.77
2022-11-04T17:16:02.940Z,99577.90
2022-11-04T17:18:33.437Z,99579.73
2022-11-04T17:21:01.402Z,99584.58
2022-11-04T17:23:28.197Z,99587.23
2022-11-04T17:25:54.788Z,99589.44
2022-11-04T17:28:21.600Z,99587.16
2022-11-04T17:30:48.261Z,99589.27
2022-11-04T17:33:15.696Z,99590.30
2022-11-04T17:35:43.310Z,99585.25
2022-11-04T17:38:10.994Z,99583.52
2022-11-04T17:40:57.951Z,99582.44
2022-11-04T17:43:43.844Z,99580.75
2022-11-04T17:46:29.615Z,99579.67
2022-11-04T17:48:56.312Z,99584.70
2022-11-04T17:51:23.156Z,99584.20
2022-11-04T17:53:49.879Z,99584.55
2022-11-04T17:56:20.382Z,99585.05
2022-11-04T17:58:47.615Z,99584.44
2022-11-04T18:01:15.870Z,99584.44
2022-11-04T18:03:42.847Z,99587.52
2022-11-04T18:06:10.033Z,99587.11
2022-11-04T18:08:36.757Z,99590.67
2022-11-04T18:11:04.140Z,99591.05
2022-11-04T18:13:31.023Z,99589.99
2022-11-04T18:15:57.790Z,99588.63
2022-11-04T18:18:24.439Z,99590.09
2022-11-04T18:20:51.134Z,99585.70
2022-11-04T18:23:18.144Z,99590.75
2022-11-04T18:25:50.454Z,99590.73
2022-11-04T18:28:17.443Z,99591.53
2022-11-04T18:30:44.180Z,99589.71
2022-11-04T18:34:11.493Z,99588.45
2022-11-04T18:36:38.541Z,99586.94
2022-11-04T18:39:09.195Z,99583.96
2022-11-04T18:41:36.231Z,99586.73
2022-11-04T18:44:03.175Z,99577.94
2022-11-04T18:46:29.929Z,99580.52
2022-11-04T18:48:56.764Z,99583.66
2022-11-04T18:51:23.558Z,99581.61
2022-11-04T18:53:50.690Z,99588.20
2022-11-04T18:56:19.158Z,99586.09
2022-11-04T18:58:46.174Z,99586.86
2022-11-04T19:01:15.283Z,99588.98
2022-11-04T19:03:42.239Z,99592.34
2022-11-04T19:06:09.554Z,99595.95
2022-11-04T19:08:36.345Z,99598.36
2022-11-04T19:11:08.933Z,99598.34
2022-11-04T19:13:35.702Z,99607.16
2022-11-04T19:16:06.227Z,99611.55
2022-11-04T19:18:33.076Z,99610.94
2022-11-04T19:21:03.808Z,99608.79
2022-11-04T19:23:32.212Z,99610.60
2022-11-04T19:26:02.154Z,99608.49
2022-11-04T19:28:44.526Z,99613.40
2022-11-04T19:31:15.738Z,99617.50
2022-11-04T19:33:42.900Z,99619.63
2022-11-04T19:36:10.463Z,99620.41
2022-11-04T19:38:37.721Z,99621.52
2022-11-04T19:41:05.927Z,99621.95
2022-11-04T19:43:32.681Z,99630.21
2022-11-04T19:46:04.064Z,99629.45
2022-11-04T19:48:31.488Z,99627.27
2022-11-04T19:50:58.366Z,99627.30
2022-11-04T19:53:25.149Z,99623.55
2022-11-04T19:55:53.331Z,99625.54
2022-11-04T19:58:20.149Z,99624.97
2022-11-04T20:00:47.215Z,99622.38
2022-11-04T20:03:14.533Z,99625.66
2022-11-04T20:05:42.324Z,99618.44
2022-11-04T20:08:09.640Z,99623.63
2022-11-04T20:10:37.899Z,99627.10
2022-11-04T20:13:23.048Z,99625.99
2022-11-04T20:15:49.935Z,99629.84
2022-11-04T20:18:16.638Z,99631.87
2022-11-04T20:20:43.511Z,99630.73
2022-11-04T20:23:10.456Z,99631.58
2022-11-04T20:25:37.115Z,99631.61
2022-11-04T20:28:04.024Z,99638.50
2022-11-04T20:30:30.797Z,99639.89
2022-11-04T20:32:57.451Z,99640.84
2022-11-04T20:35:24.162Z,99639.91
2022-11-04T20:37:50.807Z,99642.81
2022-11-04T20:40:17.686Z,99644.66
2022-11-04T20:42:47.899Z,99643.81
2022-11-04T20:45:15.925Z,99643.11
2022-11-04T20:47:42.706Z,99641.96
2022-11-04T20:50:09.807Z,99645.84
2022-11-04T20:52:37.261Z,99645.13
2022-11-04T20:55:07.376Z,99640.93
2022-11-04T20:57:34.479Z,99642.15
2022-11-04T21:00:01.224Z,99642.67
2022-11-04T21:02:28.234Z,99645.63
2022-11-04T21:04:55.148Z,99651.57
2022-11-04T21:07:24.160Z,99650.70
2022-11-04T21:09:51.361Z,99651.71
2022-11-04T21:12:19.193Z,99649.49
2022-11-04T21:14:46.081Z,99643.97
2022-11-04T21:17:12.953Z,99641.33
2022-11-04T21:19:39.695Z,99637.95
2022-11-04T21:22:06.456Z,99640.29
2022-11-04T21:24:39.003Z,99642.21
2022-11-04T21:27:06.304Z,99637.74
2022-11-04T21:29:33.052Z,99635.66
2022-11-04T21:31:59.769Z,99640.36
2022-11-04T21:34:26.513Z,99639.11
2022-11-04T21:36:53.419Z,99637.00
2022-11-04T21:39:20.326Z,99640.12
2022-11-04T21:41:47.088Z,99638.30
2022-11-04T21:44:13.947Z,99639.20
2022-11-04T21:46:40.633Z,99638.46
2022-11-04T21:49:07.532Z,99631.05
2022-11-04T21:51:34.794Z,99636.48
2022-11-04T21:54:04.897Z,99628.14
2022-11-04T21:56:34.612Z,99631.67
2022-11-04T21:59:01.680Z,99640.06
2022-11-04T22:01:29.187Z,99634.95
2022-11-04T22:03:59.415Z,99634.48
2022-11-04T22:06:33.184Z,99638.05
2022-11-04T22:09:01.353Z,99640.23
2022-11-04T22:11:29.965Z,99641.60
2022-11-04T22:14:00.389Z,99641.55
2022-11-04T22:16:28.768Z,99645.58
2022-11-04T22:18:56.913Z,99644.32
2022-11-04T22:21:24.624Z,99644.48
2022-11-04T22:23:51.591Z,99645.12
2022-11-04T22:26:24.293Z,99651.22
2022-11-04T22:28:51.378Z,99653.98
2022-11-04T22:31:26.268Z,99656.45
2022-11-04T22:33:53.133Z,99657.39
2022-11-04T22:36:20.189Z,99648.89
2022-11-04T22:38:47.071Z,99664.02
2022-11-04T22:41:14.806Z,99660.41
2022-11-04T22:43:41.559Z,99659.38
2022-11-04T22:46:12.517Z,99660.39
2022-11-04T22:48:39.210Z,99661.73
2022-11-04T22:51:07.047Z,99663.52
2022-11-04T22:53:33.800Z,99664.55
2022-11-04T22:56:00.677Z,99664.14
2022-11-04T22:58:28.019Z,99665.52
2022-11-04T23:00:56.648Z,99668.62
2022-11-04T23:03:23.554Z,99668.74
2022-11-04T23:05:56.730Z,99668.45
2022-11-04T23:08:24.293Z,99670.23
2022-11-04T23:11:10.227Z,99671.75
2022-11-04T23:13:55.719Z,99677.71
2022-11-04T23:16:41.220Z,99682.89
2022-11-04T23:19:07.932Z,99684.51
2022-11-04T23:21:53.281Z,99690.36
2022-11-04T23:24:38.705Z,99689.61
2022-11-04T23:27:05.463Z,99690.27
2022-11-04T23:29:50.914Z,99686.40
2022-11-04T23:32:19.244Z,99689.45
2022-11-04T23:35:06.493Z,99697.16
2022-11-04T23:37:33.271Z,99694.67
2022-11-04T23:39:59.996Z,99693.45
2022-11-04T23:42:26.714Z,99699.80
2022-11-04T23:45:12.825Z,99701.98
2022-11-04T23:48:04.888Z,99706.20
2022-11-04T23:50:51.787Z,99707.39
2022-11-04T23:53:38.028Z,99707.23
2022-11-04T23:56:24.049Z,99704.71
2022-11-04T23:59:09.577Z,99701.14
